sensor_id;sensor_type;location;lat;lon;timestamp;P1;durP1;ratioP1;P2;durP2;ratioP2
17488;SDS011;8861;52.644;4.734;2023-03-14T00:00:53;26.93;;;5.23;;
17488;SDS011;8861;52.644;4.734;2023-03-14T00:03:20;34.43;;;5.77;;
17488;SDS011;8861;52.644;4.734;2023-03-14T00:05:48;34.90;;;6.20;;
17488;SDS011;8861;52.644;4.734;2023-03-14T00:08:18;35.07;;;6.43;;
17488;SDS011;8861;52.644;4.734;2023-03-14T00:10:46;35.23;;;5.67;;
17488;SDS011;8861;52.644;4.734;2023-03-14T00:13:13;39.73;;;7.20;;
17488;SDS011;8861;52.644;4.734;2023-03-14T00:15:40;36.13;;;5.47;;
17488;SDS011;8861;52.644;4.734;2023-03-14T00:18:07;31.00;;;5.20;;
17488;SDS011;8861;52.644;4.734;2023-03-14T00:20:34;34.97;;;5.67;;
17488;SDS011;8861;52.644;4.734;2023-03-14T00:23:02;35.13;;;5.30;;
17488;SDS011;8861;52.644;4.734;2023-03-14T00:25:29;38.27;;;5.17;;
17488;SDS011;8861;52.644;4.734;2023-03-14T00:27:56;26.63;;;4.70;;
17488;SDS011;8861;52.644;4.734;2023-03-14T00:30:23;28.20;;;4.93;;
17488;SDS011;8861;52.644;4.734;2023-03-14T00:32:50;32.50;;;5.30;;
17488;SDS011;8861;52.644;4.734;2023-03-14T00:35:17;30.43;;;4.60;;
17488;SDS011;8861;52.644;4.734;2023-03-14T00:37:44;33.97;;;5.77;;
17488;SDS011;8861;52.644;4.734;2023-03-14T00:40:12;34.57;;;5.53;;
17488;SDS011;8861;52.644;4.734;2023-03-14T00:42:39;29.37;;;5.50;;
17488;SDS011;8861;52.644;4.734;2023-03-14T00:45:07;35.23;;;5.33;;
17488;SDS011;8861;52.644;4.734;2023-03-14T00:47:35;32.93;;;4.90;;
17488;SDS011;8861;52.644;4.734;2023-03-14T00:50:02;27.70;;;4.57;;
17488;SDS011;8861;52.644;4.734;2023-03-14T00:52:29;31.60;;;4.97;;
17488;SDS011;8861;52.644;4.734;2023-03-14T00:54:56;26.43;;;4.93;;
17488;SDS011;8861;52.644;4.734;2023-03-14T00:57:24;30.53;;;5.20;;
17488;SDS011;8861;52.644;4.734;2023-03-14T00:59:51;30.37;;;4.60;;
17488;SDS011;8861;52.644;4.734;2023-03-14T01:02:18;29.07;;;4.93;;
17488;SDS011;8861;52.644;4.734;2023-03-14T01:04:46;29.97;;;4.43;;
17488;SDS011;8861;52.644;4.734;2023-03-14T01:07:14;32.13;;;5.50;;
17488;SDS011;8861;52.644;4.734;2023-03-14T01:09:41;42.73;;;6.07;;
17488;SDS011;8861;52.644;4.734;2023-03-14T01:12:08;28.67;;;4.60;;
17488;SDS011;8861;52.644;4.734;2023-03-14T01:14:36;31.33;;;4.60;;
17488;SDS011;8861;52.644;4.734;2023-03-14T01:17:03;32.77;;;5.60;;
17488;SDS011;8861;52.644;4.734;2023-03-14T01:19:30;32.67;;;4.80;;
17488;SDS011;8861;52.644;4.734;2023-03-14T01:21:57;30.70;;;4.87;;
17488;SDS011;8861;52.644;4.734;2023-03-14T01:24:24;30.93;;;5.07;;
17488;SDS011;8861;52.644;4.734;2023-03-14T01:26:51;32.10;;;4.90;;
17488;SDS011;8861;52.644;4.734;2023-03-14T01:29:18;38.73;;;5.53;;
17488;SDS011;8861;52.644;4.734;2023-03-14T01:31:46;34.43;;;5.50;;
17488;SDS011;8861;52.644;4.734;2023-03-14T01:34:13;43.03;;;5.57;;
17488;SDS011;8861;52.644;4.734;2023-03-14T01:36:40;32.63;;;5.33;;
17488;SDS011;8861;52.644;4.734;2023-03-14T01:39:07;28.73;;;4.80;;
17488;SDS011;8861;52.644;4.734;2023-03-14T01:41:34;33.47;;;5.73;;
17488;SDS011;8861;52.644;4.734;2023-03-14T01:44:01;34.40;;;5.80;;
17488;SDS011;8861;52.644;4.734;2023-03-14T01:46:35;36.40;;;5.80;;
17488;SDS011;8861;52.644;4.734;2023-03-14T01:49:13;42.57;;;5.30;;
17488;SDS011;8861;52.644;4.734;2023-03-14T01:51:46;46.87;;;6.23;;
17488;SDS011;8861;52.644;4.734;2023-03-14T01:54:20;40.33;;;6.63;;
17488;SDS011;8861;52.644;4.734;2023-03-14T01:56:52;33.47;;;6.10;;
17488;SDS011;8861;52.644;4.734;2023-03-14T01:59:22;39.73;;;6.17;;
17488;SDS011;8861;52.644;4.734;2023-03-14T02:01:49;56.77;;;7.03;;
17488;SDS011;8861;52.644;4.734;2023-03-14T02:04:19;44.83;;;7.00;;
17488;SDS011;8861;52.644;4.734;2023-03-14T02:06:48;44.07;;;6.63;;
17488;SDS011;8861;52.644;4.734;2023-03-14T02:09:18;53.07;;;7.87;;
17488;SDS011;8861;52.644;4.734;2023-03-14T02:11:46;42.13;;;6.07;;
17488;SDS011;8861;52.644;4.734;2023-03-14T02:14:16;50.00;;;6.93;;
17488;SDS011;8861;52.644;4.734;2023-03-14T02:16:49;44.47;;;6.57;;
17488;SDS011;8861;52.644;4.734;2023-03-14T02:19:20;43.97;;;5.70;;
17488;SDS011;8861;52.644;4.734;2023-03-14T02:21:54;46.30;;;6.70;;
17488;SDS011;8861;52.644;4.734;2023-03-14T02:24:27;37.83;;;5.77;;
17488;SDS011;8861;52.644;4.734;2023-03-14T02:27:06;44.50;;;5.97;;
17488;SDS011;8861;52.644;4.734;2023-03-14T02:29:34;51.50;;;6.70;;
17488;SDS011;8861;52.644;4.734;2023-03-14T02:32:05;53.73;;;7.10;;
17488;SDS011;8861;52.644;4.734;2023-03-14T02:34:33;49.73;;;7.27;;
17488;SDS011;8861;52.644;4.734;2023-03-14T02:37:02;42.83;;;6.63;;
17488;SDS011;8861;52.644;4.734;2023-03-14T02:39:31;49.70;;;6.97;;
17488;SDS011;8861;52.644;4.734;2023-03-14T02:42:03;51.37;;;7.23;;
17488;SDS011;8861;52.644;4.734;2023-03-14T02:44:31;44.10;;;6.87;;
17488;SDS011;8861;52.644;4.734;2023-03-14T02:47:00;44.47;;;5.77;;
17488;SDS011;8861;52.644;4.734;2023-03-14T02:49:27;45.60;;;6.63;;
17488;SDS011;8861;52.644;4.734;2023-03-14T02:51:56;36.47;;;5.67;;
17488;SDS011;8861;52.644;4.734;2023-03-14T02:54:23;42.40;;;5.93;;
17488;SDS011;8861;52.644;4.734;2023-03-14T02:56:50;37.83;;;6.13;;
17488;SDS011;8861;52.644;4.734;2023-03-14T02:59:17;32.67;;;5.67;;
17488;SDS011;8861;52.644;4.734;2023-03-14T03:01:45;39.83;;;6.10;;
17488;SDS011;8861;52.644;4.734;2023-03-14T03:04:12;31.60;;;5.13;;
17488;SDS011;8861;52.644;4.734;2023-03-14T03:06:39;32.53;;;6.03;;
17488;SDS011;8861;52.644;4.734;2023-03-14T03:09:07;33.60;;;5.50;;
17488;SDS011;8861;52.644;4.734;2023-03-14T03:11:34;31.33;;;4.97;;
17488;SDS011;8861;52.644;4.734;2023-03-14T03:14:01;30.60;;;5.00;;
17488;SDS011;8861;52.644;4.734;2023-03-14T03:16:28;28.43;;;5.27;;
17488;SDS011;8861;52.644;4.734;2023-03-14T03:18:57;34.67;;;5.13;;
17488;SDS011;8861;52.644;4.734;2023-03-14T03:21:23;28.03;;;4.80;;
17488;SDS011;8861;52.644;4.734;2023-03-14T03:23:50;36.60;;;5.70;;
17488;SDS011;8861;52.644;4.734;2023-03-14T03:26:17;29.67;;;5.47;;
17488;SDS011;8861;52.644;4.734;2023-03-14T03:28:44;20.40;;;4.20;;
17488;SDS011;8861;52.644;4.734;2023-03-14T03:31:11;29.83;;;4.97;;
17488;SDS011;8861;52.644;4.734;2023-03-14T03:33:38;29.23;;;4.53;;
17488;SDS011;8861;52.644;4.734;2023-03-14T03:36:07;31.53;;;4.93;;
17488;SDS011;8861;52.644;4.734;2023-03-14T03:38:35;30.90;;;4.90;;
17488;SDS011;8861;52.644;4.734;2023-03-14T03:41:03;28.53;;;5.17;;
17488;SDS011;8861;52.644;4.734;2023-03-14T03:43:30;31.00;;;5.37;;
17488;SDS011;8861;52.644;4.734;2023-03-14T03:45:58;28.57;;;4.90;;
17488;SDS011;8861;52.644;4.734;2023-03-14T03:48:28;26.23;;;5.07;;
17488;SDS011;8861;52.644;4.734;2023-03-14T03:50:55;29.33;;;5.17;;
17488;SDS011;8861;52.644;4.734;2023-03-14T03:53:24;23.63;;;4.60;;
17488;SDS011;8861;52.644;4.734;2023-03-14T03:55:51;33.40;;;5.50;;
17488;SDS011;8861;52.644;4.734;2023-03-14T03:58:18;29.60;;;5.33;;
17488;SDS011;8861;52.644;4.734;2023-03-14T04:00:45;26.03;;;5.13;;
17488;SDS011;8861;52.644;4.734;2023-03-14T04:03:12;25.97;;;4.83;;
17488;SDS011;8861;52.644;4.734;2023-03-14T04:05:38;26.00;;;5.83;;
17488;SDS011;8861;52.644;4.734;2023-03-14T04:08:05;22.50;;;5.10;;
17488;SDS011;8861;52.644;4.734;2023-03-14T04:10:35;23.93;;;5.60;;
17488;SDS011;8861;52.644;4.734;2023-03-14T04:13:02;22.23;;;5.40;;
17488;SDS011;8861;52.644;4.734;2023-03-14T04:15:29;27.97;;;6.07;;
17488;SDS011;8861;52.644;4.734;2023-03-14T04:17:56;30.80;;;6.70;;
17488;SDS011;8861;52.644;4.734;2023-03-14T04:20:23;32.23;;;6.87;;
17488;SDS011;8861;52.644;4.734;2023-03-14T04:22:50;30.40;;;7.30;;
17488;SDS011;8861;52.644;4.734;2023-03-14T04:25:18;34.63;;;6.83;;
17488;SDS011;8861;52.644;4.734;2023-03-14T04:27:47;26.20;;;6.20;;
17488;SDS011;8861;52.644;4.734;2023-03-14T04:30:14;28.80;;;6.47;;
17488;SDS011;8861;52.644;4.734;2023-03-14T04:32:41;32.27;;;6.83;;
17488;SDS011;8861;52.644;4.734;2023-03-14T04:35:08;37.37;;;7.13;;
17488;SDS011;8861;52.644;4.734;2023-03-14T04:37:35;29.70;;;6.53;;
17488;SDS011;8861;52.644;4.734;2023-03-14T04:40:02;32.67;;;6.90;;
17488;SDS011;8861;52.644;4.734;2023-03-14T04:42:31;28.57;;;6.47;;
17488;SDS011;8861;52.644;4.734;2023-03-14T04:45:00;24.60;;;6.27;;
17488;SDS011;8861;52.644;4.734;2023-03-14T04:47:27;32.43;;;6.73;;
17488;SDS011;8861;52.644;4.734;2023-03-14T04:49:54;32.60;;;7.37;;
17488;SDS011;8861;52.644;4.734;2023-03-14T04:52:21;28.17;;;7.23;;
17488;SDS011;8861;52.644;4.734;2023-03-14T04:54:48;31.50;;;7.63;;
17488;SDS011;8861;52.644;4.734;2023-03-14T04:57:15;34.07;;;7.60;;
17488;SDS011;8861;52.644;4.734;2023-03-14T04:59:42;30.17;;;6.17;;
17488;SDS011;8861;52.644;4.734;2023-03-14T05:02:11;35.70;;;7.60;;
17488;SDS011;8861;52.644;4.734;2023-03-14T05:04:38;33.97;;;6.67;;
17488;SDS011;8861;52.644;4.734;2023-03-14T05:07:05;25.10;;;5.80;;
17488;SDS011;8861;52.644;4.734;2023-03-14T05:09:32;22.87;;;4.20;;
17488;SDS011;8861;52.644;4.734;2023-03-14T05:11:59;19.20;;;3.30;;
17488;SDS011;8861;52.644;4.734;2023-03-14T05:14:26;16.53;;;3.33;;
17488;SDS011;8861;52.644;4.734;2023-03-14T05:16:53;16.00;;;2.87;;
17488;SDS011;8861;52.644;4.734;2023-03-14T05:19:22;18.67;;;2.97;;
17488;SDS011;8861;52.644;4.734;2023-03-14T05:21:49;17.53;;;2.77;;
17488;SDS011;8861;52.644;4.734;2023-03-14T05:24:16;13.63;;;2.53;;
17488;SDS011;8861;52.644;4.734;2023-03-14T05:26:42;14.50;;;2.30;;
17488;SDS011;8861;52.644;4.734;2023-03-14T05:29:09;8.90;;;2.20;;
17488;SDS011;8861;52.644;4.734;2023-03-14T05:31:36;11.43;;;2.30;;
17488;SDS011;8861;52.644;4.734;2023-03-14T05:34:03;9.20;;;2.03;;
17488;SDS011;8861;52.644;4.734;2023-03-14T05:36:32;9.43;;;2.20;;
17488;SDS011;8861;52.644;4.734;2023-03-14T05:38:59;9.23;;;1.83;;
17488;SDS011;8861;52.644;4.734;2023-03-14T05:41:26;8.30;;;1.73;;
17488;SDS011;8861;52.644;4.734;2023-03-14T05:43:53;10.07;;;1.90;;
17488;SDS011;8861;52.644;4.734;2023-03-14T05:46:20;9.47;;;2.07;;
17488;SDS011;8861;52.644;4.734;2023-03-14T05:48:46;10.00;;;2.23;;
17488;SDS011;8861;52.644;4.734;2023-03-14T05:51:14;7.13;;;1.70;;
17488;SDS011;8861;52.644;4.734;2023-03-14T05:53:42;11.10;;;2.03;;
17488;SDS011;8861;52.644;4.734;2023-03-14T05:56:09;9.10;;;1.80;;
17488;SDS011;8861;52.644;4.734;2023-03-14T05:58:36;14.03;;;1.97;;
17488;SDS011;8861;52.644;4.734;2023-03-14T06:01:04;8.50;;;1.73;;
17488;SDS011;8861;52.644;4.734;2023-03-14T06:03:31;11.90;;;2.07;;
17488;SDS011;8861;52.644;4.734;2023-03-14T06:05:59;6.97;;;1.80;;
17488;SDS011;8861;52.644;4.734;2023-03-14T06:08:26;7.40;;;1.60;;
17488;SDS011;8861;52.644;4.734;2023-03-14T06:10:56;4.90;;;1.87;;
17488;SDS011;8861;52.644;4.734;2023-03-14T06:13:23;7.53;;;2.10;;
17488;SDS011;8861;52.644;4.734;2023-03-14T06:15:50;9.93;;;2.17;;
17488;SDS011;8861;52.644;4.734;2023-03-14T06:18:17;12.83;;;2.07;;
17488;SDS011;8861;52.644;4.734;2023-03-14T06:20:44;10.57;;;2.07;;
17488;SDS011;8861;52.644;4.734;2023-03-14T06:23:11;10.27;;;1.87;;
17488;SDS011;8861;52.644;4.734;2023-03-14T06:25:38;8.70;;;1.80;;
17488;SDS011;8861;52.644;4.734;2023-03-14T06:28:06;21.23;;;2.60;;
17488;SDS011;8861;52.644;4.734;2023-03-14T06:30:33;18.03;;;3.00;;
17488;SDS011;8861;52.644;4.734;2023-03-14T06:33:00;18.10;;;3.67;;
17488;SDS011;8861;52.644;4.734;2023-03-14T06:35:27;16.50;;;2.97;;
17488;SDS011;8861;52.644;4.734;2023-03-14T06:37:54;17.90;;;3.10;;
17488;SDS011;8861;52.644;4.734;2023-03-14T06:40:21;19.50;;;3.00;;
17488;SDS011;8861;52.644;4.734;2023-03-14T06:42:48;12.07;;;2.60;;
17488;SDS011;8861;52.644;4.734;2023-03-14T06:45:17;21.30;;;3.20;;
17488;SDS011;8861;52.644;4.734;2023-03-14T06:47:44;11.63;;;2.30;;
17488;SDS011;8861;52.644;4.734;2023-03-14T06:50:11;11.10;;;1.93;;
17488;SDS011;8861;52.644;4.734;2023-03-14T06:52:38;12.63;;;2.30;;
17488;SDS011;8861;52.644;4.734;2023-03-14T06:55:06;16.53;;;2.40;;
17488;SDS011;8861;52.644;4.734;2023-03-14T06:57:34;11.63;;;2.27;;
17488;SDS011;8861;52.644;4.734;2023-03-14T07:00:01;18.27;;;2.47;;
17488;SDS011;8861;52.644;4.734;2023-03-14T07:02:30;9.80;;;1.97;;
17488;SDS011;8861;52.644;4.734;2023-03-14T07:04:57;9.97;;;1.90;;
17488;SDS011;8861;52.644;4.734;2023-03-14T07:07:27;6.83;;;1.60;;
17488;SDS011;8861;52.644;4.734;2023-03-14T07:09:55;11.47;;;2.30;;
17488;SDS011;8861;52.644;4.734;2023-03-14T07:12:23;5.83;;;2.20;;
17488;SDS011;8861;52.644;4.734;2023-03-14T07:14:49;5.63;;;1.70;;
17488;SDS011;8861;52.644;4.734;2023-03-14T07:17:16;4.37;;;1.57;;
17488;SDS011;8861;52.644;4.734;2023-03-14T07:19:45;9.50;;;1.97;;
17488;SDS011;8861;52.644;4.734;2023-03-14T07:22:11;6.77;;;1.40;;
17488;SDS011;8861;52.644;4.734;2023-03-14T07:24:38;10.90;;;1.90;;
17488;SDS011;8861;52.644;4.734;2023-03-14T07:27:05;10.80;;;1.60;;
17488;SDS011;8861;52.644;4.734;2023-03-14T07:29:32;7.73;;;1.50;;
17488;SDS011;8861;52.644;4.734;2023-03-14T07:31:59;5.27;;;1.50;;
17488;SDS011;8861;52.644;4.734;2023-03-14T07:34:26;7.87;;;1.93;;
17488;SDS011;8861;52.644;4.734;2023-03-14T07:36:54;11.27;;;1.87;;
17488;SDS011;8861;52.644;4.734;2023-03-14T07:39:21;9.77;;;1.80;;
17488;SDS011;8861;52.644;4.734;2023-03-14T07:41:48;8.20;;;1.87;;
17488;SDS011;8861;52.644;4.734;2023-03-14T07:44:15;9.43;;;1.93;;
17488;SDS011;8861;52.644;4.734;2023-03-14T07:46:42;12.40;;;2.13;;
17488;SDS011;8861;52.644;4.734;2023-03-14T07:49:09;13.77;;;2.17;;
17488;SDS011;8861;52.644;4.734;2023-03-14T07:51:35;13.03;;;2.30;;
17488;SDS011;8861;52.644;4.734;2023-03-14T07:54:04;7.07;;;1.93;;
17488;SDS011;8861;52.644;4.734;2023-03-14T07:56:31;10.53;;;2.30;;
17488;SDS011;8861;52.644;4.734;2023-03-14T07:58:58;11.50;;;2.53;;
17488;SDS011;8861;52.644;4.734;2023-03-14T08:01:25;11.83;;;2.53;;
17488;SDS011;8861;52.644;4.734;2023-03-14T08:03:51;11.93;;;2.70;;
17488;SDS011;8861;52.644;4.734;2023-03-14T08:06:18;25.43;;;3.20;;
17488;SDS011;8861;52.644;4.734;2023-03-14T08:08:45;17.53;;;2.70;;
17488;SDS011;8861;52.644;4.734;2023-03-14T08:11:14;12.47;;;2.73;;
17488;SDS011;8861;52.644;4.734;2023-03-14T08:13:40;15.10;;;2.53;;
17488;SDS011;8861;52.644;4.734;2023-03-14T08:16:14;9.87;;;2.37;;
17488;SDS011;8861;52.644;4.734;2023-03-14T08:18:41;19.00;;;3.23;;
17488;SDS011;8861;52.644;4.734;2023-03-14T08:21:08;19.83;;;3.50;;
17488;SDS011;8861;52.644;4.734;2023-03-14T08:23:35;11.80;;;2.47;;
17488;SDS011;8861;52.644;4.734;2023-03-14T08:26:02;20.40;;;3.43;;
17488;SDS011;8861;52.644;4.734;2023-03-14T08:28:31;14.30;;;3.70;;
17488;SDS011;8861;52.644;4.734;2023-03-14T08:30:58;24.20;;;3.60;;
17488;SDS011;8861;52.644;4.734;2023-03-14T08:33:26;21.60;;;3.60;;
17488;SDS011;8861;52.644;4.734;2023-03-14T08:35:55;20.80;;;3.60;;
17488;SDS011;8861;52.644;4.734;2023-03-14T08:38:23;29.73;;;3.67;;
17488;SDS011;8861;52.644;4.734;2023-03-14T08:40:54;23.70;;;3.70;;
17488;SDS011;8861;52.644;4.734;2023-03-14T08:43:22;21.30;;;3.20;;
17488;SDS011;8861;52.644;4.734;2023-03-14T08:45:50;17.23;;;3.20;;
17488;SDS011;8861;52.644;4.734;2023-03-14T08:48:17;21.27;;;4.20;;
17488;SDS011;8861;52.644;4.734;2023-03-14T08:50:44;18.67;;;3.27;;
17488;SDS011;8861;52.644;4.734;2023-03-14T08:53:11;20.07;;;3.47;;
17488;SDS011;8861;52.644;4.734;2023-03-14T08:55:38;28.60;;;4.13;;
17488;SDS011;8861;52.644;4.734;2023-03-14T08:58:05;24.60;;;4.67;;
17488;SDS011;8861;52.644;4.734;2023-03-14T09:00:32;24.33;;;3.70;;
17488;SDS011;8861;52.644;4.734;2023-03-14T09:03:00;28.27;;;3.53;;
17488;SDS011;8861;52.644;4.734;2023-03-14T09:05:27;20.27;;;3.73;;
17488;SDS011;8861;52.644;4.734;2023-03-14T09:07:54;20.43;;;3.57;;
17488;SDS011;8861;52.644;4.734;2023-03-14T09:10:21;22.57;;;3.60;;
17488;SDS011;8861;52.644;4.734;2023-03-14T09:12:48;23.47;;;3.93;;
17488;SDS011;8861;52.644;4.734;2023-03-14T09:15:15;27.80;;;3.50;;
17488;SDS011;8861;52.644;4.734;2023-03-14T09:17:42;19.00;;;3.40;;
17488;SDS011;8861;52.644;4.734;2023-03-14T09:20:11;23.37;;;4.17;;
17488;SDS011;8861;52.644;4.734;2023-03-14T09:22:39;17.30;;;3.47;;
17488;SDS011;8861;52.644;4.734;2023-03-14T09:25:06;24.47;;;3.63;;
17488;SDS011;8861;52.644;4.734;2023-03-14T09:27:33;28.13;;;4.90;;
17488;SDS011;8861;52.644;4.734;2023-03-14T09:30:00;24.07;;;4.10;;
17488;SDS011;8861;52.644;4.734;2023-03-14T09:32:28;26.83;;;4.27;;
17488;SDS011;8861;52.644;4.734;2023-03-14T09:34:56;26.17;;;4.00;;
17488;SDS011;8861;52.644;4.734;2023-03-14T09:37:24;29.47;;;4.57;;
17488;SDS011;8861;52.644;4.734;2023-03-14T09:39:51;24.53;;;4.37;;
17488;SDS011;8861;52.644;4.734;2023-03-14T09:42:19;21.73;;;3.80;;
17488;SDS011;8861;52.644;4.734;2023-03-14T09:44:52;26.57;;;3.77;;
17488;SDS011;8861;52.644;4.734;2023-03-14T09:47:20;24.33;;;3.73;;
17488;SDS011;8861;52.644;4.734;2023-03-14T09:49:49;20.13;;;3.60;;
17488;SDS011;8861;52.644;4.734;2023-03-14T09:52:17;19.33;;;3.40;;
17488;SDS011;8861;52.644;4.734;2023-03-14T09:54:50;22.47;;;3.70;;
17488;SDS011;8861;52.644;4.734;2023-03-14T09:57:19;22.43;;;3.60;;
17488;SDS011;8861;52.644;4.734;2023-03-14T09:59:49;26.60;;;4.30;;
17488;SDS011;8861;52.644;4.734;2023-03-14T10:02:18;23.77;;;3.60;;
17488;SDS011;8861;52.644;4.734;2023-03-14T10:04:47;19.83;;;3.87;;
17488;SDS011;8861;52.644;4.734;2023-03-14T10:07:15;20.43;;;3.17;;
17488;SDS011;8861;52.644;4.734;2023-03-14T10:09:45;22.13;;;3.80;;
17488;SDS011;8861;52.644;4.734;2023-03-14T10:12:16;16.73;;;3.37;;
17488;SDS011;8861;52.644;4.734;2023-03-14T10:14:47;21.93;;;3.80;;
17488;SDS011;8861;52.644;4.734;2023-03-14T10:17:16;20.30;;;3.47;;
17488;SDS011;8861;52.644;4.734;2023-03-14T10:19:51;26.07;;;3.30;;
17488;SDS011;8861;52.644;4.734;2023-03-14T10:22:20;16.83;;;3.00;;
17488;SDS011;8861;52.644;4.734;2023-03-14T10:24:51;19.57;;;3.40;;
17488;SDS011;8861;52.644;4.734;2023-03-14T10:27:21;19.27;;;2.93;;
17488;SDS011;8861;52.644;4.734;2023-03-14T10:29:54;16.00;;;2.90;;
17488;SDS011;8861;52.644;4.734;2023-03-14T10:32:27;16.33;;;3.10;;
17488;SDS011;8861;52.644;4.734;2023-03-14T10:35:05;21.20;;;3.37;;
17488;SDS011;8861;52.644;4.734;2023-03-14T10:37:44;25.73;;;3.60;;
17488;SDS011;8861;52.644;4.734;2023-03-14T10:40:16;15.50;;;3.10;;
17488;SDS011;8861;52.644;4.734;2023-03-14T10:42:46;13.50;;;2.80;;
17488;SDS011;8861;52.644;4.734;2023-03-14T10:45:22;17.30;;;2.93;;
17488;SDS011;8861;52.644;4.734;2023-03-14T10:47:57;13.17;;;2.77;;
17488;SDS011;8861;52.644;4.734;2023-03-14T10:50:26;15.83;;;3.30;;
17488;SDS011;8861;52.644;4.734;2023-03-14T10:52:55;18.97;;;3.30;;
17488;SDS011;8861;52.644;4.734;2023-03-14T10:55:23;15.13;;;3.00;;
17488;SDS011;8861;52.644;4.734;2023-03-14T10:57:52;13.77;;;2.77;;
17488;SDS011;8861;52.644;4.734;2023-03-14T11:00:20;16.80;;;2.73;;
17488;SDS011;8861;52.644;4.734;2023-03-14T11:02:59;13.60;;;3.00;;
17488;SDS011;8861;52.644;4.734;2023-03-14T11:05:36;12.80;;;2.57;;
17488;SDS011;8861;52.644;4.734;2023-03-14T11:08:09;14.77;;;2.73;;
17488;SDS011;8861;52.644;4.734;2023-03-14T11:10:45;13.00;;;2.97;;
17488;SDS011;8861;52.644;4.734;2023-03-14T11:13:20;16.50;;;2.47;;
17488;SDS011;8861;52.644;4.734;2023-03-14T11:15:53;12.87;;;2.50;;
17488;SDS011;8861;52.644;4.734;2023-03-14T11:18:36;11.33;;;2.77;;
17488;SDS011;8861;52.644;4.734;2023-03-14T11:21:24;9.23;;;2.20;;
17488;SDS011;8861;52.644;4.734;2023-03-14T11:24:05;11.33;;;2.50;;
17488;SDS011;8861;52.644;4.734;2023-03-14T11:26:46;12.90;;;2.50;;
17488;SDS011;8861;52.644;4.734;2023-03-14T11:29:21;11.13;;;2.13;;
17488;SDS011;8861;52.644;4.734;2023-03-14T11:31:55;10.77;;;2.20;;
17488;SDS011;8861;52.644;4.734;2023-03-14T11:34:26;10.30;;;2.47;;
17488;SDS011;8861;52.644;4.734;2023-03-14T11:36:56;7.50;;;2.03;;
17488;SDS011;8861;52.644;4.734;2023-03-14T11:39:27;12.00;;;2.10;;
17488;SDS011;8861;52.644;4.734;2023-03-14T11:42:02;11.40;;;2.10;;
17488;SDS011;8861;52.644;4.734;2023-03-14T11:44:32;6.33;;;2.00;;
17488;SDS011;8861;52.644;4.734;2023-03-14T11:47:04;11.67;;;2.37;;
17488;SDS011;8861;52.644;4.734;2023-03-14T11:49:36;7.40;;;2.03;;
17488;SDS011;8861;52.644;4.734;2023-03-14T11:52:08;12.00;;;2.20;;
17488;SDS011;8861;52.644;4.734;2023-03-14T11:54:39;8.43;;;2.00;;
17488;SDS011;8861;52.644;4.734;2023-03-14T11:57:12;6.00;;;2.17;;
17488;SDS011;8861;52.644;4.734;2023-03-14T11:59:45;7.40;;;2.20;;
17488;SDS011;8861;52.644;4.734;2023-03-14T12:02:19;8.23;;;2.30;;
17488;SDS011;8861;52.644;4.734;2023-03-14T12:04:54;11.37;;;2.30;;
17488;SDS011;8861;52.644;4.734;2023-03-14T12:07:43;10.73;;;2.10;;
17488;SDS011;8861;52.644;4.734;2023-03-14T12:10:23;7.40;;;1.97;;
17488;SDS011;8861;52.644;4.734;2023-03-14T12:12:50;7.67;;;2.20;;
17488;SDS011;8861;52.644;4.734;2023-03-14T12:15:20;8.57;;;2.23;;
17488;SDS011;8861;52.644;4.734;2023-03-14T12:17:52;13.77;;;2.47;;
17488;SDS011;8861;52.644;4.734;2023-03-14T12:20:21;9.43;;;2.07;;
17488;SDS011;8861;52.644;4.734;2023-03-14T12:22:50;11.50;;;2.30;;
17488;SDS011;8861;52.644;4.734;2023-03-14T12:25:20;11.00;;;2.77;;
17488;SDS011;8861;52.644;4.734;2023-03-14T12:30:54;13.17;;;2.37;;
17488;SDS011;8861;52.644;4.734;2023-03-14T12:33:28;9.77;;;2.37;;
17488;SDS011;8861;52.644;4.734;2023-03-14T12:35:57;14.83;;;2.43;;
17488;SDS011;8861;52.644;4.734;2023-03-14T12:38:28;9.77;;;2.63;;
17488;SDS011;8861;52.644;4.734;2023-03-14T12:41:06;12.57;;;2.30;;
17488;SDS011;8861;52.644;4.734;2023-03-14T12:43:40;12.50;;;2.23;;
17488;SDS011;8861;52.644;4.734;2023-03-14T12:46:14;10.20;;;2.23;;
17488;SDS011;8861;52.644;4.734;2023-03-14T12:48:54;11.40;;;2.40;;
17488;SDS011;8861;52.644;4.734;2023-03-14T12:51:33;10.93;;;1.93;;
17488;SDS011;8861;52.644;4.734;2023-03-14T12:54:17;7.13;;;2.07;;
17488;SDS011;8861;52.644;4.734;2023-03-14T12:59:47;11.77;;;2.23;;
17488;SDS011;8861;52.644;4.734;2023-03-14T13:02:25;10.20;;;2.10;;
17488;SDS011;8861;52.644;4.734;2023-03-14T13:05:00;7.57;;;1.97;;
17488;SDS011;8861;52.644;4.734;2023-03-14T13:07:31;8.03;;;1.67;;
17488;SDS011;8861;52.644;4.734;2023-03-14T13:10:00;8.87;;;2.00;;
17488;SDS011;8861;52.644;4.734;2023-03-14T13:12:34;6.90;;;2.10;;
17488;SDS011;8861;52.644;4.734;2023-03-14T13:15:15;8.70;;;1.80;;
17488;SDS011;8861;52.644;4.734;2023-03-14T13:17:51;7.30;;;1.90;;
17488;SDS011;8861;52.644;4.734;2023-03-14T13:20:23;8.07;;;1.67;;
17488;SDS011;8861;52.644;4.734;2023-03-14T13:22:55;9.20;;;2.00;;
17488;SDS011;8861;52.644;4.734;2023-03-14T13:25:22;11.03;;;1.80;;
17488;SDS011;8861;52.644;4.734;2023-03-14T13:27:49;8.37;;;2.33;;
17488;SDS011;8861;52.644;4.734;2023-03-14T13:30:23;11.30;;;2.33;;
17488;SDS011;8861;52.644;4.734;2023-03-14T13:32:53;8.33;;;2.00;;
17488;SDS011;8861;52.644;4.734;2023-03-14T13:35:22;9.93;;;2.23;;
17488;SDS011;8861;52.644;4.734;2023-03-14T13:37:57;10.23;;;2.40;;
17488;SDS011;8861;52.644;4.734;2023-03-14T13:40:29;9.87;;;2.10;;
17488;SDS011;8861;52.644;4.734;2023-03-14T13:43:01;9.63;;;2.17;;
17488;SDS011;8861;52.644;4.734;2023-03-14T13:45:30;8.47;;;1.90;;
17488;SDS011;8861;52.644;4.734;2023-03-14T13:47:58;8.67;;;2.00;;
17488;SDS011;8861;52.644;4.734;2023-03-14T13:50:25;7.50;;;1.80;;
17488;SDS011;8861;52.644;4.734;2023-03-14T13:52:56;7.60;;;2.00;;
17488;SDS011;8861;52.644;4.734;2023-03-14T13:55:23;9.40;;;2.03;;
17488;SDS011;8861;52.644;4.734;2023-03-14T13:57:51;8.27;;;2.00;;
17488;SDS011;8861;52.644;4.734;2023-03-14T14:00:20;7.07;;;2.00;;
17488;SDS011;8861;52.644;4.734;2023-03-14T14:02:51;6.67;;;1.90;;
17488;SDS011;8861;52.644;4.734;2023-03-14T14:05:21;6.47;;;1.83;;
17488;SDS011;8861;52.644;4.734;2023-03-14T14:07:49;7.70;;;1.80;;
17488;SDS011;8861;52.644;4.734;2023-03-14T14:10:17;10.60;;;2.03;;
17488;SDS011;8861;52.644;4.734;2023-03-14T14:12:46;9.03;;;1.70;;
17488;SDS011;8861;52.644;4.734;2023-03-14T14:15:17;7.23;;;2.00;;
17488;SDS011;8861;52.644;4.734;2023-03-14T14:17:48;5.20;;;1.90;;
17488;SDS011;8861;52.644;4.734;2023-03-14T14:20:24;6.40;;;1.87;;
17488;SDS011;8861;52.644;4.734;2023-03-14T14:22:56;9.57;;;2.00;;
17488;SDS011;8861;52.644;4.734;2023-03-14T14:25:24;7.80;;;1.83;;
17488;SDS011;8861;52.644;4.734;2023-03-14T14:27:51;7.33;;;1.93;;
17488;SDS011;8861;52.644;4.734;2023-03-14T14:30:26;7.17;;;1.57;;
17488;SDS011;8861;52.644;4.734;2023-03-14T14:33:10;5.73;;;1.90;;
17488;SDS011;8861;52.644;4.734;2023-03-14T14:35:48;10.30;;;1.80;;
17488;SDS011;8861;52.644;4.734;2023-03-14T14:38:18;8.17;;;2.30;;
17488;SDS011;8861;52.644;4.734;2023-03-14T14:40:47;9.07;;;2.13;;
17488;SDS011;8861;52.644;4.734;2023-03-14T14:43:17;10.50;;;2.50;;
17488;SDS011;8861;52.644;4.734;2023-03-14T14:45:47;6.30;;;1.83;;
17488;SDS011;8861;52.644;4.734;2023-03-14T14:48:18;7.53;;;2.00;;
17488;SDS011;8861;52.644;4.734;2023-03-14T14:50:58;11.87;;;2.27;;
17488;SDS011;8861;52.644;4.734;2023-03-14T14:53:28;6.30;;;1.80;;
17488;SDS011;8861;52.644;4.734;2023-03-14T14:55:57;8.77;;;1.90;;
17488;SDS011;8861;52.644;4.734;2023-03-14T14:58:26;6.43;;;1.63;;
17488;SDS011;8861;52.644;4.734;2023-03-14T15:00:56;6.70;;;1.90;;
17488;SDS011;8861;52.644;4.734;2023-03-14T15:03:26;6.33;;;2.13;;
17488;SDS011;8861;52.644;4.734;2023-03-14T15:05:55;5.90;;;1.80;;
17488;SDS011;8861;52.644;4.734;2023-03-14T15:08:24;6.40;;;1.90;;